Weather observations for the past three days for
Pauls Valley, Pauls Valley Municipal Airport
Imperial (Metric)
Date Time (cdt) Wind (mph) Vis. (mi.) Weather Sky Cond. Temperature (ºF) Relative Humidity Wind Chill (°F) Heat Index (°F) Pressure Precipitation (in)
Air Dwpt 6 hour altimeter (in) sea level (mb) 1 hr 3 hr 6 hr
Max. Min.
05 17:55 N 8 G 17 10.00 Overcast OVC016 56.7 50.4 80% 29.81 0.0
05 17:35 NW 15 G 18 10.00 Overcast OVC016 57.6 50.5 78% 29.8 0.0
05 17:15 N 10 10.00 Overcast OVC016 58.1 51.8 80% 29.79 0.0
05 16:55 N 14 10.00 Overcast OVC016 58.8 52 78% 29.78 0.0
05 16:35 N 12 10.00 Overcast OVC016 59.9 52.3 76% 29.77 0.0
05 16:15 N 14 G 18 10.00 Overcast OVC018 61.7 53.4 74% 29.76 0.0
05 15:55 N 13 G 17 10.00 Overcast OVC018 62.6 53.8 73% 29.76 0.0
05 15:35 N 13 G 18 10.00 Overcast OVC018 63.7 54.7 73% 29.76 0.0
05 15:15 N 14 G 22 10.00 Mostly Cloudy BKN018 64.6 54.9 71% 29.76 0.0
05 14:55 N 18 G 24 10.00 Partly Cloudy SCT018 64.8 55.2 71% 29.74 0.0
05 14:35 N 16 G 24 10.00 Fair CLR 65.8 55.9 71% 29.72 0.0
05 14:15 N 16 G 22 10.00 Fair CLR 68.2 57.4 69% 29.69 0.0
05 13:55 N 18 G 24 10.00 Fair CLR 70.7 59.2 67% 29.72 0.0
05 13:35 NW 16 G 21 10.00 Partly Cloudy SCT120 76.3 60.8 59% 78 29.69 0.0
05 13:15 Calm 10.00 Partly Cloudy SCT120 76.6 60.4 57% 78 29.67 0.0
05 12:55 Calm 10.00 Fair CLR 77.7 59.5 78.4 70.3 54% 79 29.68 0.0
05 12:35 Calm 10.00 Fair CLR 77.9 60.4 55% 79 29.67 0.0
05 12:15 W 6 10.00 Fair CLR 78.1 59.7 53% 79 29.67 0.0
05 11:55 W 3 10.00 Fair CLR 77.5 63 61% 79 29.66 0.0
05 11:35 Calm 10.00 Fair CLR 76.8 64 65% 79 29.65 0.0
05 11:15 SW 13 G 17 10.00 Fair CLR 76.5 63.5 64% 78 29.65 0.0
05 10:55 SW 14 G 17 10.00 Fair CLR 75.2 63.1 66% 77 29.65 0.0
05 10:35 SW 16 G 20 10.00 Fair CLR 75.4 63.7 67% 77 29.63 0.0
05 10:15 SW 3 10.00 Fair CLR 74.5 64 70% 29.63 0.0
05 09:55 Calm 10.00 Fair CLR 73.8 63.9 71% 29.63 0.0
05 09:35 Calm 10.00 Fair CLR 71.6 63.3 75% 29.63 0.0
05 09:15 Calm 10.00 Fair CLR 71.2 63.1 76% 29.61 0.0
05 08:55 S 5 10.00 Fair CLR 71.1 63.5 77% 29.61 0.0
05 08:35 S 5 G 18 10.00 Fair CLR 71.2 63.1 76% 29.61 0.0
05 08:15 S 5 10.00 Fair CLR 71.1 63 76% 29.61 0.0
05 07:55 S 7 10.00 Fair CLR 70.7 62.8 76% 29.61 0.0
05 07:35 S 5 10.00 Fair CLR 70.7 62.8 76% 29.61 0.0
05 07:15 S 6 10.00 Fair CLR 70.3 62.6 77% 29.6 0.0
05 06:55 S 7 G 17 10.00 Fair CLR 70.7 62.6 72.5 70.3 76% 29.58 0.0
05 06:35 S 10 G 20 10.00 Fair CLR 70.7 62.6 76% 29.58 0.0
05 06:15 S 12 G 18 10.00 Fair CLR 70.7 62.6 76% 29.58 0.0
05 05:55 S 10 G 21 10.00 Fair CLR 70.9 62.6 75% 29.57 0.0
05 05:35 S 12 G 21 10.00 Fair CLR 70.9 62.6 75% 29.58 0.0
05 05:15 S 5 G 20 10.00 Fair CLR 71.6 62.6 73% 29.57 0.0
05 04:55 S 14 G 20 10.00 Fair CLR 72 62.6 73% 29.58 0.0
05 04:35 S 14 G 20 10.00 Fair CLR 71.8 62.6 73% 29.58 0.0
05 04:15 S 13 G 18 10.00 Fair CLR 71.6 62.4 73% 29.59 0.0
05 03:55 S 14 G 18 10.00 Fair CLR 72 62.2 72% 29.58 0.0
05 03:35 S 15 G 20 10.00 Fair CLR 72.1 62.2 71% 29.59 0.0
05 03:15 S 15 G 24 10.00 Fair CLR 72.5 62.2 70% 29.59 0.0
05 02:55 S 12 G 17 10.00 Fair CLR 71.6 62.4 73% 29.6 0.0
05 02:35 S 6 G 16 10.00 Fair CLR 71.4 62.6 74% 29.61 0.0
05 02:15 S 5 10.00 Fair CLR 71.6 62.2 72% 29.62 0.0
05 01:55 S 12 G 16 10.00 Fair CLR 71.6 62.2 72% 29.63 0.0
05 01:35 S 10 G 18 10.00 Fair CLR 71.8 62.2 72% 29.63 0.0
05 01:15 S 10 G 18 10.00 Fair CLR 71.8 62.1 72% 29.64 0.0
05 00:55 S 9 G 17 10.00 Fair CLR 71.8 62.1 79.3 71.6 72% 29.64 0.0
05 00:35 S 13 G 20 10.00 Fair CLR 71.6 61.9 72% 29.64 0.0
05 00:15 S 9 G 21 10.00 Fair CLR 72 61.9 71% 29.65 0.0
04 23:55 S 10 G 20 10.00 Fair CLR 71.6 61.9 72% 29.66 0.0
04 23:35 S 12 G 18 10.00 Fair CLR 71.6 61.7 71% 29.66 0.0
04 23:15 S 7 10.00 Fair CLR 71.6 61.7 71% 29.66 0.0
04 22:55 S 12 G 18 10.00 Fair CLR 71.8 61.7 71% 29.66 0.0
04 22:35 Calm 10.00 Fair CLR 71.8 61.5 70% 29.66 0.0
04 22:15 S 9 G 16 10.00 Fair CLR 72.5 61.3 68% 29.66 0.0
04 21:55 S 5 10.00 Fair CLR 72.7 61.7 69% 29.66 0.0
04 21:35 Calm 10.00 Fair CLR 72.5 61.7 69% 29.66 0.0
04 21:15 Calm 10.00 Fair CLR 73.4 61.7 67% 29.66 0.0
04 20:55 Calm 10.00 Fair CLR 73.4 61.7 67% 29.66 0.0
04 20:35 Calm 10.00 Fair CLR 74.3 61.7 65% 29.66 0.0
04 20:15 Calm 10.00 Fair CLR 76.1 61.3 60% 78 29.66 0.0
04 19:55 Calm 10.00 Fair CLR 77.2 61.2 58% 79 29.66 0.0
04 19:35 S 13 G 21 10.00 Fair CLR 78.1 60.8 55% 80 29.66 0.0
04 19:15 S 13 G 21 10.00 Fair CLR 78.8 60.8 54% 80 29.67 0.0
04 18:55 S 3 G 20 10.00 Fair CLR 79.7 60.8 80.8 76.3 53% 81 29.66 0.0
04 18:35 S 14 G 22 10.00 Fair CLR 80.1 60.4 51% 81 29.67 0.0
04 18:15 S 15 G 23 10.00 Fair CLR 80.6 60.3 50% 81 29.68 0.0
04 17:55 S 14 G 26 10.00 Fair CLR 80.8 60.4 50% 82 29.68 0.0
04 17:35 S 13 G 23 10.00 Fair CLR 80.1 60.1 51% 81 29.68 0.0
04 17:15 S 14 G 23 10.00 Fair CLR 80.4 60.1 50% 81 29.69 0.0
04 16:55 S 14 G 24 10.00 Fair CLR 80.8 61.2 51% 82 29.69 0.0
04 16:35 S 9 G 18 10.00 Fair CLR 78.8 60.1 53% 80 29.71 0.0
04 16:15 S 14 G 21 10.00 Fair CLR 78.8 59.9 52% 80 29.72 0.0
04 15:55 S 8 G 24 10.00 Fair CLR 79.5 59.7 51% 80 29.73 0.0
04 15:35 S 13 G 24 10.00 Fair CLR 78.6 58.8 51% 80 29.74 0.0
04 15:15 S 17 G 25 10.00 Fair CLR 79.5 59.2 50% 80 29.76 0.0
04 14:55 S 17 G 22 10.00 Fair CLR 79 59.4 51% 80 29.77 0.0
04 14:35 S 17 G 25 10.00 Fair CLR 78.4 58.1 50% 80 29.78 0.0
04 14:15 S 9 G 23 10.00 Fair CLR 78.6 58.3 50% 80 29.78 0.0
04 13:55 S 21 G 26 10.00 Fair and Breezy CLR 78.1 57.7 50% 79 29.78 0.0
04 13:35 S 13 G 24 10.00 Fair CLR 76.6 57.6 52% 78 29.79 0.0
04 13:15 S 14 G 22 10.00 Fair CLR 76.5 56.7 50% 78 29.8 0.0
04 12:55 S 17 G 24 10.00 Fair CLR 76.5 56.8 76.6 59 51% 78 29.81 0.0
04 12:35 S 16 G 29 10.00 Fair CLR 75.7 56.3 51% 78 29.82 0.0
04 12:15 S 15 10.00 Fair CLR 75.2 55.6 51% 78 29.83 0.0
04 11:55 S 18 G 25 10.00 Fair CLR 74.5 55.6 52% 29.84 0.0
04 11:35 SW 18 G 26 10.00 Fair CLR 73.9 55.2 52% 29.84 0.0
04 11:15 S 14 G 22 10.00 Fair CLR 72.1 54.9 55% 29.85 0.0
04 10:55 S 13 G 24 10.00 Fair CLR 71.6 54.1 54% 29.85 0.0
04 10:35 S 15 G 21 10.00 Fair CLR 70.9 54 55% 29.86 0.0
04 10:15 S 17 G 21 10.00 Fair CLR 69.8 53.4 56% 29.86 0.0
04 09:55 S 14 G 21 10.00 Fair CLR 68.9 52.9 57% 29.87 0.0
04 09:35 S 12 G 22 10.00 Fair CLR 68.4 52.3 57% 29.87 0.0
04 09:15 S 12 10.00 Fair CLR 67.8 52 57% 29.87 0.0
04 08:55 S 10 G 16 10.00 Fair CLR 66.4 51.3 58% 29.87 0.0
04 08:35 Calm 10.00 Fair CLR 64.9 50.4 59% 29.87 0.0
04 08:15 Calm 10.00 Partly Cloudy SCT110 63 49.3 61% 29.88 0.0
04 07:55 Calm 10.00 Fair CLR 61.7 48.4 62% 29.87 0.0
04 07:35 Calm 10.00 Fair CLR 60.4 47.3 62% 29.87 0.0
04 07:15 Calm 10.00 Partly Cloudy SCT110 59.4 46.9 64% 29.87 0.0
04 06:55 Calm 10.00 Partly Cloudy SCT110 58.8 46.8 65.5 58.1 64% 29.87 0.0
04 06:35 Calm 10.00 Partly Cloudy SCT110 58.5 46.6 65% 29.87 0.0
04 06:15 Calm 10.00 Fair CLR 58.3 46.4 65% 29.88 0.0
04 05:55 Calm 10.00 Fair CLR 59.7 46 61% 29.88 0.0
04 05:35 Calm 10.00 Fair CLR 60.4 45.9 59% 29.88 0.0
04 05:15 Calm 10.00 Fair CLR 61 45.5 57% 29.88 0.0
04 04:55 Calm 10.00 Fair CLR 61.9 45.3 55% 29.88 0.0
04 04:35 Calm 10.00 Fair CLR 62.6 45.1 53% 29.88 0.0
04 04:15 S 7 G 17 10.00 Fair CLR 63.1 45 52% 29.88 0.0
04 03:55 S 12 G 20 10.00 Fair CLR 63.5 45 51% 29.89 0.0
04 03:35 S 10 G 18 10.00 Fair CLR 63.7 45 51% 29.89 0.0
04 03:15 S 13 G 21 10.00 Fair CLR 63.5 45.1 51% 29.9 0.0
04 02:55 S 5 G 16 10.00 Fair CLR 63.5 45.1 51% 29.9 0.0
04 02:35 S 9 10.00 Fair CLR 63.5 45.1 51% 29.91 0.0
04 02:15 S 8 10.00 Fair CLR 63.5 45.5 52% 29.92 0.0
04 01:55 S 12 10.00 Fair CLR 64.2 45.3 50% 29.93 0.0
04 01:35 S 14 10.00 Fair CLR 64.6 45 49% 29.94 0.0
04 01:15 S 14 G 17 10.00 Fair CLR 64.9 44.6 48% 29.94 0.0
04 00:55 S 12 G 17 10.00 Fair CLR 65.5 44.6 77.5 65.3 47% 29.95 0.0
04 00:35 S 14 G 20 10.00 Fair CLR 65.7 43.9 45% 29.95 0.0
04 00:15 S 10 G 16 10.00 Fair CLR 66.2 43.5 44% 29.96 0.0
03 23:55 Calm 10.00 Fair CLR 66.2 43.3 44% 29.96 0.0
03 23:35 Calm 10.00 Fair CLR 65.5 43.2 44% 29.96 0.0
03 23:15 Calm 10.00 Fair CLR 65.7 42.4 43% 29.97 0.0
03 22:55 Calm 10.00 Fair CLR 66.9 41.9 40% 29.97 0.0
03 22:35 Calm 10.00 Fair CLR 66.7 42.1 41% 29.97 0.0
03 22:15 Calm 10.00 Fair CLR 66.9 42.3 41% 29.97 0.0
03 21:55 Calm 10.00 Fair CLR 66.9 42.8 42% 29.97 0.0
03 21:35 Calm 10.00 Fair CLR 68.2 43 40% 29.97 0.0
03 21:15 Calm 10.00 Fair CLR 68.5 43.9 41% 29.96 0.0
03 20:55 Calm 10.00 Fair CLR 69.8 44.6 40% 29.96 0.0
03 20:35 Calm 10.00 Fair CLR 70.9 45.1 40% 29.95 0.0
03 20:15 Calm 10.00 Fair CLR 73.4 44.2 35% 29.96 0.0
03 19:55 Calm 10.00 Fair CLR 74.7 43.7 33% 29.96 0.0
03 19:35 Calm 10.00 Fair CLR 75.9 42.4 30% 77 29.96 0.0
03 19:15 S 13 G 17 10.00 Fair CLR 77 42.1 29% 78 29.97 0.0
03 18:55 SW 10 G 18 10.00 Fair CLR 77.7 41.9 82.2 77.7 28% 78 29.97 0.0
03 18:35 SW 17 10.00 Fair CLR 79.5 42.8 27% 79 29.98 0.0
03 18:15 SW 12 G 21 10.00 Fair CLR 80.6 40.6 24% 79 29.98 0.0
03 17:55 SW 20 G 24 10.00 Fair CLR 80.8 41.4 25% 79 29.98 0.0
03 17:35 SW 13 G 20 10.00 Fair CLR 80.8 42.8 26% 79 29.98 0.0
03 17:15 SW 10 G 16 10.00 Fair CLR 81.1 42.8 26% 80 29.99 0.0
03 16:55 SW 17 G 24 10.00 Fair CLR 81.5 42.4 25% 80 30 0.0
03 16:35 SW 12 G 21 10.00 Fair CLR 81.7 43.5 26% 80 30 0.0
03 16:15 SW 21 10.00 Fair and Breezy CLR 81.7 43.5 26% 80 30.01 0.0
03 15:55 SW 17 G 22 10.00 Fair CLR 81.5 42.8 25% 80 30.02 0.0
03 15:35 SW 18 G 22 10.00 Fair CLR 81.5 41.9 25% 80 30.03 0.0
03 15:15 SW 17 G 25 10.00 Fair CLR 81.9 41.7 24% 80 30.04 0.0
03 14:55 SW 16 G 21 10.00 Fair CLR 81.9 42.3 25% 80 30.05 0.0
03 14:35 Calm 10.00 Partly Cloudy SCT080 81.5 43.3 26% 80 30.06 0.0
03 14:15 SW 16 G 21 10.00 Partly Cloudy SCT080 82 48 31% 81 30.06 0.0
03 13:55 SW 14 G 18 10.00 Fair CLR 80.8 46 30% 80 30.07 0.0
03 13:35 Calm 10.00 Fair CLR 80.6 47.7 32% 80 30.08 0.0
03 13:15 SW 16 G 20 10.00 Fair CLR 80.4 47.5 32% 80 30.09 0.0
03 12:55 W 12 G 21 10.00 Fair CLR 79 47.1 79.3 49.3 33% 79 30.1 0.0
03 12:15 W 14 G 23 10.00 Fair CLR 78.1 47.5 34% 78 30.11 0.0
03 11:55 SW 14 G 18 10.00 Fair CLR 76.8 48.7 37% 78 30.12 0.0
03 11:35 W 13 G 21 10.00 Fair CLR 75 49.8 41% 78 30.12 0.0
03 11:15 SW 13 G 18 10.00 Fair CLR 73.2 49.8 44% 30.13 0.0
03 10:55 W 15 G 21 10.00 Fair CLR 72 49.3 45% 30.13 0.0
03 10:35 SW 13 G 16 10.00 Fair CLR 70.3 48.9 47% 30.13 0.0
03 10:15 W 12 10.00 Fair CLR 67.5 48.7 51% 30.13 0.0
03 09:55 Calm 10.00 Fair CLR 66.2 49.5 55% 30.13 0.0
03 09:35 Calm 10.00 Fair CLR 64 48.9 58% 30.14 0.0
03 09:15 Calm 10.00 Fair CLR 62.4 49.1 62% 30.13 0.0
03 08:55 Calm 10.00 Fair CLR 59.5 50.2 71% 30.13 0.0
03 08:35 Calm 10.00 Fair CLR 57.6 50.5 78% 30.12 0.0
03 08:15 Calm 10.00 Fair CLR 55 50 83% 30.12 0.0
03 07:55 Calm 10.00 Fair CLR 52.7 49.1 88% 30.12 0.0
03 07:35 Calm 10.00 Fair CLR 50.9 48.7 92% 30.12 0.0
03 07:15 Calm 10.00 Fair CLR 49.5 48 95% 30.11 0.0
03 06:55 Calm 10.00 Fair CLR 49.3 47.8 53.2 47.8 95% 30.11 0.0
03 06:35 Calm 10.00 Fair CLR 49.3 48 95% 30.1 0.0
03 06:15 Calm 10.00 Fair CLR 49.3 48 95% 30.1 0.0
03 05:55 Calm 10.00 Fair CLR 49.1 48.2 97% 30.1 0.0
03 05:35 Calm 10.00 Fair CLR 49.1 48.2 97% 30.11 0.0
03 05:15 Calm 10.00 Fair CLR 49.1 48.4 97% 30.11 0.0
03 04:55 Calm 10.00 Fair CLR 49.5 48.7 97% 30.11 0.0
03 04:35 Calm 10.00 Fair CLR 49.3 49.1 99% 30.11 0.0
03 04:15 Calm 10.00 Fair CLR 48.9 48.6 99% 30.12 0.0
03 03:55 Calm 10.00 Fair CLR 47.8 47.3 98% 30.12 0.0
03 03:35 Calm 10.00 Fair CLR 48.4 47.7 97% 30.13 0.0
03 03:15 Calm 10.00 Fair CLR 49.3 48.4 97% 30.14 0.0
03 02:55 Calm 10.00 Fair CLR 50.5 49.5 96% 30.14 0.0
03 02:35 Calm 10.00 Fair CLR 49.5 48.2 95% 30.14 0.0
03 02:15 Calm 10.00 Fair CLR 50.2 48.4 94% 30.15 0.0
03 01:55 Calm 10.00 Fair CLR 51.3 48 89% 30.15 0.0
03 01:35 Calm 10.00 Fair CLR 52 48.7 89% 30.15 0.0
03 01:15 Calm 10.00 Fair CLR 52 49.3 91% 30.15 0.0
03 00:55 Calm 10.00 Fair CLR 52.2 48.4 74.7 52.2 87% 30.15 0.0
03 00:35 Calm 10.00 Fair CLR 54.5 48.4 80% 30.15 0.0
03 00:15 Calm 10.00 Fair CLR 53.4 48.7 84% 30.14 0.0
02 23:55 Calm 10.00 Fair CLR 55.6 48.9 78% 30.14 0.0
02 23:35 Calm 10.00 Fair CLR 57 48.2 73% 30.14 0.0
02 23:15 Calm 10.00 Fair CLR 58.5 47.8 68% 30.14 0.0
02 22:55 Calm 10.00 Fair CLR 58.3 48.7 71% 30.14 0.0
02 22:35 Calm 10.00 Fair CLR 57 49.3 75% 30.14 0.0
02 22:15 Calm 10.00 Fair CLR 57.9 49.3 73% 30.13 0.0
02 21:55 Calm 10.00 Fair CLR 60.3 48.2 65% 30.12 0.0
02 21:35 Calm 10.00 Fair CLR 63.3 47.5 56% 30.11 0.0
02 21:15 Calm 10.00 Fair CLR 64.4 47.3 54% 30.11 0.0
02 20:55 Calm 10.00 Fair CLR 65.3 46.8 51% 30.1 0.0
02 20:35 Calm 10.00 Fair CLR 64.6 49.1 57% 30.1 0.0
02 20:15 Calm 10.00 Fair CLR 67.6 47.5 49% 30.09 0.0
02 19:55 Calm 10.00 Fair CLR 69.4 47.1 45% 30.09 0.0
02 19:35 Calm 10.00 Fair CLR 72.3 44.8 37% 30.09 0.0
02 19:15 Calm 10.00 Fair CLR 73.6 43.2 34% 30.09 0.0
02 18:55 Calm 10.00 Fair CLR 74.3 40.6 75.6 70.5 30% 30.09 0.0
02 18:35 Calm 10.00 Partly Cloudy SCT080 74.3 41.4 31% 30.09 0.0
02 18:15 Calm 10.00 Partly Cloudy SCT080 73.8 41.5 31% 30.09 0.0
Date Time (cdt) Wind (mph) Vis. (mi.) Weather Sky Cond. Air Dwpt Max. Min. Relative Humidity Wind Chill (°F) Heat Index (°F) altimeter (in) sea level (mb) 1 hr 3 hr 6 hr
6 hour
Temperature (ºF) Pressure Precipitation (in)